Main page
METAR-TAF:

METAR-TAF

Airports :

Accra, Ghana

Kotoka International Airport

latitude: 05-36N, longitude: 000-10W, elevation: 68 m

Current weather observation

The report was made 1 hour and 9 minutes ago, at 18:00 UTC
Wind 12 kt from the South
Temperature 28°C
Humidity 84%
Pressure 1009 hPa
Visibility: 5000 m
mist

METAR: DGAA 191800Z 19012KT 5000 BR NSC 28/25 Q1009 NOSIG

Time: 19:09 (19:09 UTC)

Forecast

The report was made 2 hours and 9 minutes ago, at 17:00 UTC
Forecast valid from 19 at 18 UTC to 20 at 24 UTC
Wind 10 kt from the South/Southwest
Visibility: 8000 m
Becoming
from 19 at 21 UTC to 19 at 23 UTC
Few clouds at a height of 1200 ft
Becoming
from 20 at 02 UTC to 20 at 04 UTC
Wind 5 kt from the West
Scattered clouds at a height of 900 ft
Temporary
from 20 at 06 UTC to 20 at 10 UTC
Visibility: 4000 m
mist

TAF: DGAA 191700Z 1918/2024 20010KT 8000 NSC BECMG 1921/1923 FEW012 BECMG 2002/2004 26005KT SCT009 TEMPO 2006/2010 4000 BR NSC

Weather observations and forecasts of more than 4000 airports (METAR and TAF reports).

The available stations are represented by yellow and red dots on the map.

Hover mouse over dot to see the name of the station.

Then click to see weather observations and forecasts.

To change the map : click on the green buttons with a black cross to zoom in, on the green button with a dash to zoom out, or on the green arrows for adjacent maps.


METAR-TAF: